KPSC/PSC METAR and TAF weather

Enter ICAO airport designator
Station Type Date Time Source
KPSC METAR 2019/12/06 14:00 UTC NOAA

KPSC 061400Z 33003KT 1SM BR VV002 M02/M03 A3012 RMK AO2 T10171028 RVRNO


Station Type Date Time Source
KPSC Decoded METAR 2019/12/06 14:00 UTC NOAA

TRI-CITIES AIRPORT, WA, United States (KPSC) 46-16N 119-07W 121M
Dec 06, 2019 - 09:00 AM EST / 2019.12.06 1400 UTC
Wind: from the NNW (330 degrees) at 3 MPH (3 KT):0
Visibility: 1 mile(s):0
Sky conditions: obscured
Weather: mist
Temperature: 28.9 F (-1.7 C)
Dew Point: 27.0 F (-2.8 C)
Relative Humidity: 92%
Pressure (altimeter): 30.12 in. Hg (1019 hPa)
ob: KPSC 061400Z 33003KT 1SM BR VV002 M02/M03 A3012 RMK AO2 T10171028 RVRNO
cycle: 14

Station Type Date Time Source
KPSC TAF 2019/12/06 13:27 UTC NOAA

TAF
AMD KPSC 061324Z 0613/0712 35003KT 6SM BR OVC002
TEMPO 0614/0616 2SM BR SCT002 BKN150
FM061600 VRB03KT 4SM BR OVC007
FM062100 VRB03KT 6SM HZ BKN015 OVC150
FM070300 VRB02KT P6SM OVC050
FM070900 VRB02KT 6SM -RA BR OVC040

Example: see airport list